Time;durP1;ratioP1;P1;durP2;ratioP2;P2;SDS_P1;SDS_P2;PMS_P1;PMS_P2;Temp;Humidity;BMP_temperature;BMP_pressure;BME280_temperature;BME280_humidity;BME280_pressure;Samples;Min_cycle;Max_cycle;Signal;HPM_P1;HPM_P2
2023/12/13 00:00:57;;;;;;;1.63;1.40;;;;;;;;;;5047035;28;20188;-82
2023/12/13 00:04:01;;;;;;;2.27;1.20;;;;;;;;;;5058033;28;20180;-82
2023/12/13 00:07:05;;;;;;;1.73;1.23;;;;;;;;;;5056605;28;20215;-82
2023/12/13 00:10:10;;;;;;;1.17;1.07;;;;;;;;;;5058635;28;20184;-82
2023/12/13 00:13:14;;;;;;;1.27;1.00;;;;;;;;;;5056911;28;20180;-82
2023/12/13 00:16:21;;;;;;;1.37;1.03;;;;;;;;;;5057073;28;20224;-82
2023/12/13 00:19:26;;;;;;;1.00;0.90;;;;;;;;;;5056778;28;20192;-82
2023/12/13 00:22:32;;;;;;;1.10;0.93;;;;;;;;;;5045004;28;20185;-82
2023/12/13 00:25:36;;;;;;;1.10;0.90;;;;;;;;;;5045822;28;20231;-82
2023/12/13 00:28:41;;;;;;;1.13;0.77;;;;;;;;;;5063100;28;20180;-82
2023/12/13 00:31:46;;;;;;;3.50;1.07;;;;;;;;;;5061361;28;20180;-81
2023/12/13 00:34:51;;;;;;;5.43;0.83;;;;;;;;;;5062538;28;20184;-82
2023/12/13 00:37:54;;;;;;;1.53;0.90;;;;;;;;;;5050259;28;20541;-85
2023/12/13 00:40:59;;;;;;;1.03;0.90;;;;;;;;;;5062397;28;20184;-81
2023/12/13 00:44:03;;;;;;;1.67;0.90;;;;;;;;;;5060906;28;20184;-82
2023/12/13 00:47:07;;;;;;;1.00;0.80;;;;;;;;;;5050511;28;20692;-82
2023/12/13 00:50:12;;;;;;;1.20;0.90;;;;;;;;;;5061545;28;20184;-82
2023/12/13 00:53:16;;;;;;;1.97;0.90;;;;;;;;;;5061982;28;20180;-85
2023/12/13 00:56:21;;;;;;;4.00;1.17;;;;;;;;;;5060642;28;20235;-83
2023/12/13 00:59:25;;;;;;;1.27;0.93;;;;;;;;;;5061784;28;20552;-87
2023/12/13 01:02:29;;;;;;;1.20;1.07;;;;;;;;;;5052026;28;20180;-83
2023/12/13 01:05:33;;;;;;;0.97;0.80;;;;;;;;;;5065805;28;20216;-85
2023/12/13 01:08:38;;;;;;;1.10;1.00;;;;;;;;;;5065321;28;20550;-85
2023/12/13 01:11:43;;;;;;;0.90;0.70;;;;;;;;;;5053313;28;20181;-85
2023/12/13 01:14:47;;;;;;;2.13;0.70;;;;;;;;;;5065446;28;20180;-85
2023/12/13 01:17:51;;;;;;;1.00;0.80;;;;;;;;;;5064013;28;20196;-85
2023/12/13 01:20:56;;;;;;;1.17;0.60;;;;;;;;;;5063996;28;20184;-85
2023/12/13 01:24:00;;;;;;;0.87;0.67;;;;;;;;;;5064581;28;20188;-84
2023/12/13 01:27:05;;;;;;;0.67;0.60;;;;;;;;;;5064426;28;20220;-84
2023/12/13 01:30:09;;;;;;;1.67;0.90;;;;;;;;;;5062975;28;20181;-84
2023/12/13 01:33:13;;;;;;;1.23;0.60;;;;;;;;;;5063509;28;20180;-84
2023/12/13 01:36:18;;;;;;;0.53;0.50;;;;;;;;;;5062778;28;20215;-84
2023/12/13 01:39:22;;;;;;;0.60;0.40;;;;;;;;;;5051705;28;20641;-84
2023/12/13 01:42:26;;;;;;;2.00;0.40;;;;;;;;;;5064300;28;20180;-84
2023/12/13 01:45:30;;;;;;;1.07;0.63;;;;;;;;;;5062561;28;20584;-84
2023/12/13 01:48:35;;;;;;;0.53;0.50;;;;;;;;;;5040376;28;20625;-85
2023/12/13 01:51:40;;;;;;;0.93;0.50;;;;;;;;;;5062663;28;20184;-84
2023/12/13 01:54:45;;;;;;;2.17;0.50;;;;;;;;;;5062436;28;20188;-84
2023/12/13 01:57:49;;;;;;;0.90;0.50;;;;;;;;;;5062346;28;20208;-84
2023/12/13 02:00:55;;;;;;;2.00;0.47;;;;;;;;;;5063662;28;20185;-85
2023/12/13 02:04:01;;;;;;;0.90;0.50;;;;;;;;;;5062814;28;20184;-84
2023/12/13 02:07:05;;;;;;;1.00;0.43;;;;;;;;;;5049389;28;20207;-84
2023/12/13 02:10:10;;;;;;;1.20;0.50;;;;;;;;;;5061344;28;20180;-84
2023/12/13 02:13:14;;;;;;;0.83;0.47;;;;;;;;;;5050436;28;20180;-84
2023/12/13 02:16:18;;;;;;;1.47;0.50;;;;;;;;;;5061181;28;20692;-84
2023/12/13 02:19:22;;;;;;;0.50;0.40;;;;;;;;;;5061972;28;20164;-84
2023/12/13 02:22:27;;;;;;;2.50;0.60;;;;;;;;;;5061860;28;20180;-84
2023/12/13 02:26:01;;;;;;;2.50;0.70;;;;;;;;;;5060529;28;20212;-84
2023/12/13 02:29:06;;;;;;;2.30;0.60;;;;;;;;;;5037844;28;20172;-85
2023/12/13 02:32:10;;;;;;;1.63;0.60;;;;;;;;;;5048530;28;20180;-84
2023/12/13 02:35:16;;;;;;;1.13;0.80;;;;;;;;;;5037156;28;20215;-84
2023/12/13 02:38:20;;;;;;;1.13;0.40;;;;;;;;;;5047536;28;20382;-84
2023/12/13 02:41:24;;;;;;;3.00;0.50;;;;;;;;;;5060158;28;20188;-84
2023/12/13 02:44:28;;;;;;;0.70;0.43;;;;;;;;;;5060234;28;20520;-84
2023/12/13 02:47:32;;;;;;;0.97;0.50;;;;;;;;;;5046648;28;20176;-84
2023/12/13 02:50:38;;;;;;;1.30;0.47;;;;;;;;;;5058606;28;20181;-85
2023/12/13 02:53:43;;;;;;;1.77;0.50;;;;;;;;;;5046825;28;20633;-85
2023/12/13 02:56:47;;;;;;;0.50;0.50;;;;;;;;;;5057933;28;20227;-84
2023/12/13 02:59:51;;;;;;;1.07;0.50;;;;;;;;;;5057644;28;20183;-84
2023/12/13 03:02:56;;;;;;;3.00;0.60;;;;;;;;;;5058232;28;20625;-85
2023/12/13 03:06:00;;;;;;;0.80;0.50;;;;;;;;;;5046403;28;20223;-84
2023/12/13 03:09:04;;;;;;;0.87;0.40;;;;;;;;;;5058037;28;20184;-84
2023/12/13 03:12:10;;;;;;;0.77;0.50;;;;;;;;;;5058049;28;20552;-84
2023/12/13 03:15:14;;;;;;;0.63;0.50;;;;;;;;;;5057091;28;20561;-84
2023/12/13 03:18:18;;;;;;;1.53;0.60;;;;;;;;;;5057100;28;20208;-84
2023/12/13 03:21:22;;;;;;;0.90;0.50;;;;;;;;;;5045297;28;20184;-84
2023/12/13 03:24:26;;;;;;;2.03;0.40;;;;;;;;;;5046031;28;20655;-84
2023/12/13 03:27:31;;;;;;;0.47;0.40;;;;;;;;;;5057539;28;20188;-84
2023/12/13 03:30:35;;;;;;;1.67;0.60;;;;;;;;;;5045521;28;20180;-84
2023/12/13 03:33:39;;;;;;;0.83;0.60;;;;;;;;;;5057704;28;20180;-84
2023/12/13 03:36:43;;;;;;;0.70;0.60;;;;;;;;;;5057691;28;20216;-84
2023/12/13 03:39:47;;;;;;;2.20;0.80;;;;;;;;;;5057499;28;20525;-84
2023/12/13 03:42:52;;;;;;;0.60;0.43;;;;;;;;;;5060781;28;20188;-84
2023/12/13 03:45:56;;;;;;;0.63;0.50;;;;;;;;;;5061232;28;20696;-84
2023/12/13 03:49:00;;;;;;;0.60;0.37;;;;;;;;;;5048376;28;20177;-84
2023/12/13 03:52:05;;;;;;;0.67;0.67;;;;;;;;;;5059568;28;20184;-84
2023/12/13 03:55:09;;;;;;;0.50;0.50;;;;;;;;;;5059846;28;20208;-84
2023/12/13 03:58:13;;;;;;;1.00;0.50;;;;;;;;;;5059671;28;20553;-84
2023/12/13 04:01:17;;;;;;;4.63;0.60;;;;;;;;;;5047572;28;20214;-84
2023/12/13 04:04:22;;;;;;;0.40;0.40;;;;;;;;;;5058171;28;20183;-84
2023/12/13 04:07:26;;;;;;;0.80;0.50;;;;;;;;;;5059054;28;20176;-84
2023/12/13 04:10:32;;;;;;;1.13;0.50;;;;;;;;;;5047352;28;20196;-84
2023/12/13 04:13:36;;;;;;;0.97;0.60;;;;;;;;;;5059283;28;20202;-84
2023/12/13 04:16:41;;;;;;;1.47;0.50;;;;;;;;;;5058546;28;20219;-84
2023/12/13 04:19:45;;;;;;;0.60;0.50;;;;;;;;;;5058296;28;20166;-84
2023/12/13 04:22:49;;;;;;;1.60;0.60;;;;;;;;;;5058592;28;20185;-84
2023/12/13 04:25:53;;;;;;;1.43;0.60;;;;;;;;;;5058625;28;20220;-85
2023/12/13 04:28:57;;;;;;;0.90;0.70;;;;;;;;;;5058915;28;20180;-84
2023/12/13 04:32:02;;;;;;;1.17;0.50;;;;;;;;;;5058342;28;20533;-84
2023/12/13 04:35:09;;;;;;;0.70;0.53;;;;;;;;;;5057216;28;20184;-84
2023/12/13 04:38:13;;;;;;;1.17;0.60;;;;;;;;;;5058017;28;20208;-84
2023/12/13 04:41:17;;;;;;;0.40;0.40;;;;;;;;;;5046158;28;20188;-84
2023/12/13 04:44:27;;;;;;;2.50;0.60;;;;;;;;;;5046337;28;20176;-84
2023/12/13 04:47:31;;;;;;;1.87;0.70;;;;;;;;;;5059085;28;20180;-84
2023/12/13 04:50:36;;;;;;;0.80;0.70;;;;;;;;;;5058094;28;20176;-84
2023/12/13 04:53:40;;;;;;;0.50;0.50;;;;;;;;;;5057270;28;20180;-84
2023/12/13 04:56:44;;;;;;;1.00;0.60;;;;;;;;;;5058556;28;20228;-84
2023/12/13 04:59:48;;;;;;;1.70;0.80;;;;;;;;;;5058318;28;20168;-84
2023/12/13 05:02:52;;;;;;;2.63;0.70;;;;;;;;;;5034739;28;20189;-84
2023/12/13 05:05:56;;;;;;;1.43;0.60;;;;;;;;;;5046084;28;20216;-84
2023/12/13 05:09:00;;;;;;;0.80;0.60;;;;;;;;;;5057822;28;20518;-84
2023/12/13 05:12:05;;;;;;;1.53;0.70;;;;;;;;;;5057890;28;20184;-84
2023/12/13 05:15:09;;;;;;;4.77;0.73;;;;;;;;;;5057864;28;20188;-85
2023/12/13 05:18:13;;;;;;;1.00;0.70;;;;;;;;;;5060904;28;20208;-84
2023/12/13 05:21:18;;;;;;;0.70;0.70;;;;;;;;;;5059795;28;20184;-84
2023/12/13 05:24:22;;;;;;;2.13;0.83;;;;;;;;;;5046182;28;20184;-85
2023/12/13 05:27:26;;;;;;;2.00;0.93;;;;;;;;;;5057506;28;20177;-84
2023/12/13 05:30:30;;;;;;;0.97;0.60;;;;;;;;;;5058555;28;20617;-84
2023/12/13 05:33:35;;;;;;;3.23;1.00;;;;;;;;;;5057722;28;20180;-84
2023/12/13 05:36:40;;;;;;;1.43;0.70;;;;;;;;;;5056902;28;20220;-84
2023/12/13 05:39:44;;;;;;;1.40;0.83;;;;;;;;;;5056864;28;20203;-84
2023/12/13 05:42:47;;;;;;;3.17;0.97;;;;;;;;;;5056523;28;20188;-83
2023/12/13 05:45:52;;;;;;;1.70;0.87;;;;;;;;;;5056578;28;20220;-84
2023/12/13 05:48:56;;;;;;;2.20;0.83;;;;;;;;;;5056784;28;20621;-84
2023/12/13 05:52:01;;;;;;;2.70;0.80;;;;;;;;;;5056281;28;20184;-85
2023/12/13 05:55:06;;;;;;;2.60;0.80;;;;;;;;;;5056545;28;20180;-84
2023/12/13 05:58:10;;;;;;;1.10;0.90;;;;;;;;;;5056537;28;20200;-84
2023/12/13 06:01:14;;;;;;;2.00;0.90;;;;;;;;;;5056748;28;20183;-84
2023/12/13 06:04:18;;;;;;;2.50;1.00;;;;;;;;;;5056598;28;20180;-84
2023/12/13 06:07:23;;;;;;;1.63;0.93;;;;;;;;;;5033975;28;20184;-84
2023/12/13 06:10:27;;;;;;;1.53;0.90;;;;;;;;;;5057018;28;20632;-84
2023/12/13 06:13:31;;;;;;;1.47;1.00;;;;;;;;;;5045104;28;20176;-84
2023/12/13 06:16:35;;;;;;;1.93;0.80;;;;;;;;;;5056585;28;20219;-84
2023/12/13 06:19:40;;;;;;;1.40;1.00;;;;;;;;;;5056872;28;20676;-84
2023/12/13 06:22:44;;;;;;;3.87;0.93;;;;;;;;;;5056437;28;20192;-85
2023/12/13 06:25:48;;;;;;;2.77;1.00;;;;;;;;;;5056962;28;20708;-84
2023/12/13 06:28:52;;;;;;;2.67;1.00;;;;;;;;;;5056371;28;20613;-84
2023/12/13 06:31:56;;;;;;;2.87;1.00;;;;;;;;;;5056756;28;20180;-84
2023/12/13 06:35:01;;;;;;;1.30;0.70;;;;;;;;;;5056822;28;20192;-84
2023/12/13 06:38:05;;;;;;;4.50;1.03;;;;;;;;;;5044665;28;20202;-83
2023/12/13 06:41:09;;;;;;;2.77;1.40;;;;;;;;;;5057587;28;20184;-83
2023/12/13 06:44:13;;;;;;;2.33;1.03;;;;;;;;;;5056938;28;20180;-84
2023/12/13 06:47:17;;;;;;;1.20;0.80;;;;;;;;;;5055982;28;20215;-84
2023/12/13 06:50:24;;;;;;;5.93;1.50;;;;;;;;;;5056981;28;20645;-84
2023/12/13 06:53:28;;;;;;;1.43;1.07;;;;;;;;;;5057638;28;20187;-84
2023/12/13 06:56:33;;;;;;;4.40;2.10;;;;;;;;;;5055615;28;20227;-84
2023/12/13 06:59:37;;;;;;;2.43;1.87;;;;;;;;;;5044552;28;20202;-85
2023/12/13 07:02:41;;;;;;;4.77;2.87;;;;;;;;;;5056253;28;20188;-84
2023/12/13 07:05:46;;;;;;;9.63;6.03;;;;;;;;;;5056650;28;20223;-84
2023/12/13 07:08:50;;;;;;;4.07;2.60;;;;;;;;;;5055583;28;20176;-84
2023/12/13 07:11:54;;;;;;;3.83;1.70;;;;;;;;;;5055355;28;20180;-84
2023/12/13 07:14:58;;;;;;;5.60;2.10;;;;;;;;;;5056852;28;20180;-84
2023/12/13 07:18:03;;;;;;;3.20;1.20;;;;;;;;;;5048027;28;20185;-84
2023/12/13 07:21:07;;;;;;;2.97;0.90;;;;;;;;;;5059089;28;20184;-84
2023/12/13 07:24:12;;;;;;;2.83;1.10;;;;;;;;;;5059047;28;20181;-84
2023/12/13 07:27:16;;;;;;;2.57;0.83;;;;;;;;;;5058471;28;20212;-84
2023/12/13 07:30:23;;;;;;;2.17;1.20;;;;;;;;;;5058299;28;20184;-84
2023/12/13 07:33:27;;;;;;;1.63;0.70;;;;;;;;;;5058703;28;20180;-84
2023/12/13 07:36:31;;;;;;;0.93;0.83;;;;;;;;;;5058268;28;20215;-84
2023/12/13 07:39:36;;;;;;;2.87;0.97;;;;;;;;;;5059280;28;20547;-84
2023/12/13 07:42:43;;;;;;;2.50;1.47;;;;;;;;;;5059506;28;20185;-85
2023/12/13 07:45:51;;;;;;;1.33;0.80;;;;;;;;;;5058868;28;20216;-84
2023/12/13 07:48:57;;;;;;;4.23;1.10;;;;;;;;;;5059364;28;20181;-82
2023/12/13 07:52:04;;;;;;;2.10;1.33;;;;;;;;;;5059104;28;20184;-85
2023/12/13 07:55:08;;;;;;;3.17;1.80;;;;;;;;;;5058187;28;20184;-85
2023/12/13 07:58:12;;;;;;;2.03;1.30;;;;;;;;;;5058729;28;20176;-86
2023/12/13 08:01:17;;;;;;;2.17;1.20;;;;;;;;;;5059183;28;20172;-85
2023/12/13 08:04:21;;;;;;;1.00;0.80;;;;;;;;;;5058622;28;20184;-85
2023/12/13 08:07:26;;;;;;;1.57;0.93;;;;;;;;;;5047144;28;20173;-85
2023/12/13 08:10:31;;;;;;;3.83;2.50;;;;;;;;;;5057895;28;20180;-85
2023/12/13 08:13:35;;;;;;;4.80;2.07;;;;;;;;;;5059123;28;20177;-85
2023/12/13 08:16:39;;;;;;;2.50;2.00;;;;;;;;;;5057980;28;20224;-86
2023/12/13 08:19:44;;;;;;;2.70;1.60;;;;;;;;;;5058250;28;20212;-85
2023/12/13 08:22:49;;;;;;;2.87;1.60;;;;;;;;;;5059240;28;20184;-85
2023/12/13 08:25:53;;;;;;;2.93;1.60;;;;;;;;;;5046729;28;20215;-85
2023/12/13 08:28:57;;;;;;;4.77;2.20;;;;;;;;;;5057838;28;20172;-85
2023/12/13 08:32:01;;;;;;;2.00;1.80;;;;;;;;;;5057965;28;20180;-86
2023/12/13 08:35:07;;;;;;;3.47;2.10;;;;;;;;;;5046344;28;20180;-85
2023/12/13 08:38:11;;;;;;;3.43;1.80;;;;;;;;;;5046228;28;20189;-85
2023/12/13 08:41:15;;;;;;;2.97;1.63;;;;;;;;;;5057800;28;20172;-86
2023/12/13 08:44:21;;;;;;;1.87;1.70;;;;;;;;;;5058456;28;20180;-85
2023/12/13 08:47:25;;;;;;;2.90;1.93;;;;;;;;;;5058240;28;20180;-85
2023/12/13 08:50:30;;;;;;;2.53;2.00;;;;;;;;;;5058125;28;20176;-85
2023/12/13 08:53:34;;;;;;;3.93;1.93;;;;;;;;;;5058493;28;20193;-85
2023/12/13 08:56:38;;;;;;;2.93;1.87;;;;;;;;;;5057774;28;20224;-85
2023/12/13 08:59:42;;;;;;;2.30;2.10;;;;;;;;;;5056338;28;20196;-85
2023/12/13 09:02:46;;;;;;;3.23;1.90;;;;;;;;;;5056799;28;20177;-85
2023/12/13 09:05:51;;;;;;;2.53;1.70;;;;;;;;;;5057421;28;20700;-85
2023/12/13 09:08:56;;;;;;;2.50;1.90;;;;;;;;;;5045267;28;20180;-85
2023/12/13 09:12:00;;;;;;;3.10;1.57;;;;;;;;;;5056246;28;20180;-85
2023/12/13 09:15:06;;;;;;;2.83;2.10;;;;;;;;;;5056333;28;20184;-85
2023/12/13 09:18:10;;;;;;;3.60;1.90;;;;;;;;;;5057285;28;20185;-85
2023/12/13 09:21:15;;;;;;;3.17;1.70;;;;;;;;;;5056099;28;20168;-86
2023/12/13 09:24:21;;;;;;;3.23;1.60;;;;;;;;;;5057273;28;20188;-85
2023/12/13 09:27:26;;;;;;;2.87;1.90;;;;;;;;;;5057323;28;20176;-85
2023/12/13 09:30:30;;;;;;;2.00;1.40;;;;;;;;;;5056405;28;20177;-85
2023/12/13 09:33:36;;;;;;;3.13;1.67;;;;;;;;;;5055657;28;20641;-85
2023/12/13 09:36:41;;;;;;;1.83;1.27;;;;;;;;;;5055588;28;20215;-85
2023/12/13 09:39:45;;;;;;;1.30;1.20;;;;;;;;;;5032346;28;20568;-85
2023/12/13 09:42:50;;;;;;;39.10;19.80;;;;;;;;;;5044463;28;20185;-86
2023/12/13 09:45:55;;;;;;;43.73;20.60;;;;;;;;;;5056055;28;20216;-85
2023/12/13 09:48:59;;;;;;;22.20;10.27;;;;;;;;;;5056750;28;20510;-85
2023/12/13 09:52:05;;;;;;;7.23;4.10;;;;;;;;;;5055682;28;20180;-85
2023/12/13 09:55:13;;;;;;;4.70;2.87;;;;;;;;;;5055577;28;20556;-85
2023/12/13 09:58:17;;;;;;;5.97;2.60;;;;;;;;;;5056657;28;20176;-85
2023/12/13 10:01:21;;;;;;;3.30;1.20;;;;;;;;;;5043993;28;20512;-85
2023/12/13 10:04:29;;;;;;;1.20;1.07;;;;;;;;;;5056571;28;20191;-85
2023/12/13 10:07:33;;;;;;;1.80;1.00;;;;;;;;;;5054964;28;20180;-85
2023/12/13 10:10:37;;;;;;;2.40;1.20;;;;;;;;;;5055690;28;20173;-85
2023/12/13 10:13:41;;;;;;;3.77;1.40;;;;;;;;;;5055243;28;20180;-85
2023/12/13 10:16:45;;;;;;;3.47;1.13;;;;;;;;;;5055869;28;20212;-86
2023/12/13 10:19:49;;;;;;;2.30;1.27;;;;;;;;;;5043771;28;20677;-85
2023/12/13 10:22:54;;;;;;;4.83;1.60;;;;;;;;;;5056027;28;20184;-85
2023/12/13 10:25:58;;;;;;;12.13;1.87;;;;;;;;;;5055383;28;20219;-85
2023/12/13 10:29:03;;;;;;;12.83;5.57;;;;;;;;;;5055534;28;20179;-85
2023/12/13 10:32:07;;;;;;;27.43;12.00;;;;;;;;;;5055877;28;20184;-85
2023/12/13 10:35:12;;;;;;;15.30;7.00;;;;;;;;;;5054995;28;20187;-85
2023/12/13 10:38:18;;;;;;;9.80;4.77;;;;;;;;;;5043999;28;20176;-86
2023/12/13 10:41:27;;;;;;;24.47;11.57;;;;;;;;;;5056208;28;20203;-85
2023/12/13 10:44:33;;;;;;;32.90;16.63;;;;;;;;;;5056647;28;20185;-84
2023/12/13 10:47:44;;;;;;;74.53;39.07;;;;;;;;;;5055888;28;20180;-86
2023/12/13 10:50:49;;;;;;;25.00;16.77;;;;;;;;;;5056657;28;20173;-86
2023/12/13 10:53:55;;;;;;;20.50;13.73;;;;;;;;;;5047268;28;20184;-85
2023/12/13 10:57:00;;;;;;;5.90;5.33;;;;;;;;;;5058787;28;20226;-85
2023/12/13 11:00:06;;;;;;;3.20;2.60;;;;;;;;;;5058655;28;20549;-85
2023/12/13 11:03:23;;;;;;;2.30;2.10;;;;;;;;;;5059291;28;20180;-85
2023/12/13 11:06:27;;;;;;;5.57;2.20;;;;;;;;;;5058488;28;20216;-85
2023/12/13 11:09:31;;;;;;;2.40;1.90;;;;;;;;;;5035512;28;20184;-85
2023/12/13 11:12:49;;;;;;;2.53;1.73;;;;;;;;;;5059231;28;20184;-84
2023/12/13 11:15:53;;;;;;;1.63;1.40;;;;;;;;;;5059899;28;20212;-85
2023/12/13 11:18:57;;;;;;;1.73;1.40;;;;;;;;;;5059847;28;20184;-85
2023/12/13 11:22:09;;;;;;;3.30;1.73;;;;;;;;;;5059503;28;20164;-84
2023/12/13 11:25:14;;;;;;;3.27;1.70;;;;;;;;;;5047341;28;20188;-85
2023/12/13 11:28:22;;;;;;;2.60;1.10;;;;;;;;;;5047293;28;20176;-84
2023/12/13 11:31:26;;;;;;;2.10;1.27;;;;;;;;;;5059371;28;20177;-85
2023/12/13 11:34:41;;;;;;;2.00;1.10;;;;;;;;;;5047136;28;20176;-84
2023/12/13 11:37:53;;;;;;;3.27;1.30;;;;;;;;;;5059575;28;20176;-85
2023/12/13 11:40:58;;;;;;;3.03;1.20;;;;;;;;;;5046690;28;20204;-85
2023/12/13 11:44:03;;;;;;;2.43;1.30;;;;;;;;;;5058782;28;20188;-84
2023/12/13 11:47:09;;;;;;;2.63;1.50;;;;;;;;;;5058564;28;20676;-85
2023/12/13 11:50:14;;;;;;;2.27;1.27;;;;;;;;;;5058880;28;20219;-85
2023/12/13 11:53:18;;;;;;;1.73;1.10;;;;;;;;;;5046908;28;20180;-82
2023/12/13 11:56:22;;;;;;;1.77;1.10;;;;;;;;;;5058419;28;20223;-84
2023/12/13 11:59:26;;;;;;;2.57;1.10;;;;;;;;;;5058789;28;20188;-84
2023/12/13 12:02:31;;;;;;;2.50;1.10;;;;;;;;;;5058091;28;20498;-83
2023/12/13 12:05:35;;;;;;;1.40;1.00;;;;;;;;;;5057760;28;20216;-82
2023/12/13 12:08:39;;;;;;;2.20;1.00;;;;;;;;;;5057988;28;20188;-83
2023/12/13 12:11:43;;;;;;;1.10;0.90;;;;;;;;;;5058343;28;20180;-82
2023/12/13 12:14:49;;;;;;;1.20;0.90;;;;;;;;;;5057402;28;20184;-85
2023/12/13 12:17:57;;;;;;;2.33;1.03;;;;;;;;;;5057229;28;20568;-86
2023/12/13 12:21:04;;;;;;;3.83;1.50;;;;;;;;;;5057246;28;20235;-83
2023/12/13 12:24:10;;;;;;;3.43;1.10;;;;;;;;;;5046071;28;20184;-85
2023/12/13 12:27:14;;;;;;;2.23;1.10;;;;;;;;;;5056572;28;20703;-81
2023/12/13 12:30:18;;;;;;;2.27;1.20;;;;;;;;;;5057189;28;20544;-81
2023/12/13 12:33:22;;;;;;;2.77;1.20;;;;;;;;;;5056189;28;20184;-82
2023/12/13 12:36:27;;;;;;;4.90;1.20;;;;;;;;;;5044971;28;20680;-82
2023/12/13 12:39:32;;;;;;;7.33;5.30;;;;;;;;;;5057150;28;20180;-81
2023/12/13 12:42:36;;;;;;;4.37;1.97;;;;;;;;;;5055911;28;20169;-81
2023/12/13 12:45:40;;;;;;;3.70;2.83;;;;;;;;;;5056535;28;20220;-81
2023/12/13 12:48:44;;;;;;;5.43;3.03;;;;;;;;;;5044439;28;20184;-81
2023/12/13 12:51:48;;;;;;;5.33;2.43;;;;;;;;;;5055485;28;20637;-82
2023/12/13 12:54:52;;;;;;;3.03;2.30;;;;;;;;;;5045467;28;20204;-83
2023/12/13 12:57:57;;;;;;;4.30;1.80;;;;;;;;;;5045732;28;20177;-86
2023/12/13 13:01:01;;;;;;;5.00;3.37;;;;;;;;;;5045439;28;20204;-83
2023/12/13 13:04:05;;;;;;;3.63;3.10;;;;;;;;;;5056553;28;20180;-83
2023/12/13 13:07:09;;;;;;;2.67;2.27;;;;;;;;;;5044757;28;20211;-84
2023/12/13 13:10:15;;;;;;;1.20;1.10;;;;;;;;;;5057346;28;20176;-84
2023/12/13 13:13:19;;;;;;;4.37;3.23;;;;;;;;;;5055501;28;20188;-83
2023/12/13 13:16:23;;;;;;;2.03;1.60;;;;;;;;;;5056396;28;20215;-84
2023/12/13 13:19:27;;;;;;;5.53;4.80;;;;;;;;;;5056700;28;20532;-84
2023/12/13 13:22:31;;;;;;;7.67;5.53;;;;;;;;;;5056094;28;20172;-84
2023/12/13 13:25:35;;;;;;;2.33;1.47;;;;;;;;;;5056558;28;20216;-83
2023/12/13 13:28:40;;;;;;;1.40;1.30;;;;;;;;;;5056237;28;20625;-84
2023/12/13 13:31:45;;;;;;;2.87;1.40;;;;;;;;;;5056971;28;20180;-85
2023/12/13 13:34:50;;;;;;;2.97;2.20;;;;;;;;;;5056427;28;20188;-86
2023/12/13 13:37:54;;;;;;;4.23;1.53;;;;;;;;;;5033104;28;20176;-84
2023/12/13 13:40:59;;;;;;;2.10;1.90;;;;;;;;;;5056102;28;20208;-84
2023/12/13 13:44:03;;;;;;;2.03;1.33;;;;;;;;;;5058284;28;20184;-83
2023/12/13 13:47:08;;;;;;;3.00;1.40;;;;;;;;;;5056806;28;20215;-82
2023/12/13 13:50:13;;;;;;;3.73;1.30;;;;;;;;;;5057292;28;20188;-82
2023/12/13 13:53:17;;;;;;;2.93;2.00;;;;;;;;;;5059351;28;20184;-80
2023/12/13 13:56:21;;;;;;;2.23;1.70;;;;;;;;;;5057432;28;20232;-85
2023/12/13 13:59:25;;;;;;;3.23;2.20;;;;;;;;;;5055644;28;20180;-84
2023/12/13 14:02:31;;;;;;;4.43;2.30;;;;;;;;;;5055140;28;20200;-85
2023/12/13 14:05:35;;;;;;;5.23;4.20;;;;;;;;;;5057194;28;20223;-84
2023/12/13 14:08:39;;;;;;;3.00;2.70;;;;;;;;;;5055920;28;20180;-84
2023/12/13 14:11:44;;;;;;;2.50;2.10;;;;;;;;;;5056819;28;20176;-84
2023/12/13 14:14:48;;;;;;;2.10;1.00;;;;;;;;;;5056105;28;20184;-84
2023/12/13 14:17:52;;;;;;;3.47;1.67;;;;;;;;;;5056292;28;20176;-84
2023/12/13 14:20:57;;;;;;;1.70;1.20;;;;;;;;;;5055522;28;20208;-84
2023/12/13 14:24:01;;;;;;;0.90;0.80;;;;;;;;;;5044516;28;20192;-84
2023/12/13 14:27:06;;;;;;;2.13;1.10;;;;;;;;;;5056054;28;20215;-84
2023/12/13 14:30:10;;;;;;;1.17;0.90;;;;;;;;;;5056489;28;20184;-84
2023/12/13 14:33:15;;;;;;;1.50;1.00;;;;;;;;;;5043775;28;20177;-83
2023/12/13 14:36:18;;;;;;;1.63;1.23;;;;;;;;;;5055010;28;20212;-84
2023/12/13 14:39:23;;;;;;;1.87;0.97;;;;;;;;;;5055022;28;20188;-84
2023/12/13 14:42:28;;;;;;;2.37;0.93;;;;;;;;;;5056389;28;20204;-84
2023/12/13 14:45:32;;;;;;;1.57;1.17;;;;;;;;;;5043091;28;20220;-84
2023/12/13 14:48:37;;;;;;;1.30;0.80;;;;;;;;;;5043294;28;20544;-85
2023/12/13 14:51:43;;;;;;;2.30;1.00;;;;;;;;;;5055019;28;20641;-84
2023/12/13 14:54:46;;;;;;;1.20;0.80;;;;;;;;;;5055863;28;20180;-84
2023/12/13 14:57:51;;;;;;;2.40;1.50;;;;;;;;;;5055824;28;20176;-84
2023/12/13 15:00:55;;;;;;;2.20;2.00;;;;;;;;;;5054633;28;20204;-84
2023/12/13 15:03:59;;;;;;;3.93;1.40;;;;;;;;;;5043468;28;20180;-83
2023/12/13 15:07:04;;;;;;;4.33;1.70;;;;;;;;;;5054245;28;20216;-84
2023/12/13 15:10:11;;;;;;;3.67;1.70;;;;;;;;;;5043144;28;20180;-84
2023/12/13 15:13:17;;;;;;;2.00;1.80;;;;;;;;;;5055774;28;20180;-84
2023/12/13 15:16:22;;;;;;;3.07;1.53;;;;;;;;;;5042940;28;20684;-83
2023/12/13 15:19:26;;;;;;;3.37;2.50;;;;;;;;;;5031983;28;20192;-84
2023/12/13 15:22:31;;;;;;;4.73;1.80;;;;;;;;;;5054666;28;20200;-83
2023/12/13 15:25:35;;;;;;;1.53;1.10;;;;;;;;;;5042939;28;20225;-84
2023/12/13 15:28:39;;;;;;;2.23;1.30;;;;;;;;;;5054400;28;20177;-84
2023/12/13 15:31:43;;;;;;;2.57;1.80;;;;;;;;;;5054737;28;20185;-83
2023/12/13 15:34:48;;;;;;;1.83;1.50;;;;;;;;;;5055212;28;20180;-83
2023/12/13 15:37:52;;;;;;;3.60;1.50;;;;;;;;;;5056209;28;20180;-83
2023/12/13 15:40:56;;;;;;;2.40;1.37;;;;;;;;;;5058561;28;20651;-84
2023/12/13 15:44:06;;;;;;;1.80;1.23;;;;;;;;;;5057809;28;20188;-83
2023/12/13 15:47:10;;;;;;;2.27;1.67;;;;;;;;;;5058279;28;20212;-83
2023/12/13 15:50:14;;;;;;;2.27;1.77;;;;;;;;;;5045359;28;20639;-83
2023/12/13 15:53:18;;;;;;;3.10;1.80;;;;;;;;;;5057597;28;20176;-83
2023/12/13 15:56:23;;;;;;;3.03;1.93;;;;;;;;;;5056500;28;20224;-83
2023/12/13 15:59:28;;;;;;;2.53;1.60;;;;;;;;;;5057881;28;20541;-84
2023/12/13 16:02:32;;;;;;;2.53;1.73;;;;;;;;;;5056965;28;20208;-83
2023/12/13 16:05:36;;;;;;;2.47;1.90;;;;;;;;;;5056623;28;20683;-83
2023/12/13 16:08:40;;;;;;;2.50;2.10;;;;;;;;;;5057356;28;20629;-84
2023/12/13 16:11:44;;;;;;;2.63;1.90;;;;;;;;;;5057716;28;20181;-84
2023/12/13 16:14:48;;;;;;;2.77;1.90;;;;;;;;;;5057210;28;20179;-83
2023/12/13 16:17:55;;;;;;;2.60;2.00;;;;;;;;;;5057813;28;20180;-83
2023/12/13 16:20:59;;;;;;;4.07;2.30;;;;;;;;;;5057608;28;20184;-83
2023/12/13 16:24:04;;;;;;;3.27;2.20;;;;;;;;;;5057632;28;20181;-83
2023/12/13 16:27:08;;;;;;;3.43;2.10;;;;;;;;;;5057503;28;20264;-83
2023/12/13 16:30:13;;;;;;;3.57;2.00;;;;;;;;;;5056797;28;20184;-83
2023/12/13 16:33:17;;;;;;;4.40;2.37;;;;;;;;;;5056654;28;20537;-83
2023/12/13 16:36:21;;;;;;;2.13;1.93;;;;;;;;;;5056873;28;20263;-83
2023/12/13 16:39:26;;;;;;;4.13;1.93;;;;;;;;;;5057141;28;20184;-83
2023/12/13 16:42:30;;;;;;;2.33;2.00;;;;;;;;;;5056806;28;20299;-83
2023/12/13 16:45:34;;;;;;;2.33;2.13;;;;;;;;;;5055986;28;20223;-84
2023/12/13 16:48:38;;;;;;;3.17;2.13;;;;;;;;;;5057003;28;20184;-83
2023/12/13 16:51:42;;;;;;;3.57;2.10;;;;;;;;;;5062306;28;20629;-83
2023/12/13 16:54:47;;;;;;;7.00;2.20;;;;;;;;;;5059674;28;20180;-83
2023/12/13 16:57:52;;;;;;;2.43;1.83;;;;;;;;;;5059453;28;20180;-83
2023/12/13 17:00:57;;;;;;;3.20;1.77;;;;;;;;;;5061249;28;20184;-83
2023/12/13 17:04:02;;;;;;;2.53;2.07;;;;;;;;;;5060084;28;20172;-83
2023/12/13 17:07:06;;;;;;;2.23;1.90;;;;;;;;;;5059991;28;20216;-83
2023/12/13 17:10:11;;;;;;;2.70;2.47;;;;;;;;;;5059688;28;20176;-83
2023/12/13 17:13:15;;;;;;;3.90;2.40;;;;;;;;;;5061352;28;20626;-83
2023/12/13 17:16:20;;;;;;;3.77;2.63;;;;;;;;;;5061437;28;20220;-83
2023/12/13 17:19:25;;;;;;;149.37;8.07;;;;;;;;;;5060728;28;20180;-85
2023/12/13 17:22:30;;;;;;;11.03;2.70;;;;;;;;;;5049314;28;20204;-83
2023/12/13 17:25:34;;;;;;;2.30;2.10;;;;;;;;;;5064206;28;20228;-84
2023/12/13 17:28:39;;;;;;;2.43;2.00;;;;;;;;;;5064757;28;20180;-84
2023/12/13 17:31:43;;;;;;;2.97;2.10;;;;;;;;;;5052835;28;20176;-84
2023/12/13 17:34:48;;;;;;;3.57;2.77;;;;;;;;;;5053574;28;20549;-84
2023/12/13 17:37:55;;;;;;;4.53;3.00;;;;;;;;;;5066063;28;20188;-84
2023/12/13 17:41:00;;;;;;;7.93;2.90;;;;;;;;;;5064208;28;20180;-83
2023/12/13 17:44:04;;;;;;;2.57;2.37;;;;;;;;;;5052515;28;20164;-84
2023/12/13 17:47:09;;;;;;;2.83;2.40;;;;;;;;;;5064578;28;20224;-84
2023/12/13 17:50:15;;;;;;;3.30;2.77;;;;;;;;;;5063771;28;20236;-84
2023/12/13 17:53:20;;;;;;;4.57;3.80;;;;;;;;;;5066088;28;20184;-83
2023/12/13 17:56:26;;;;;;;3.60;2.50;;;;;;;;;;5063376;28;20227;-83
2023/12/13 17:59:30;;;;;;;3.37;2.43;;;;;;;;;;5062628;28;20180;-84
2023/12/13 18:02:34;;;;;;;2.37;2.17;;;;;;;;;;5063151;28;20212;-84
2023/12/13 18:05:39;;;;;;;2.87;2.57;;;;;;;;;;5051257;28;20215;-83
2023/12/13 18:08:47;;;;;;;6.10;3.70;;;;;;;;;;5062309;28;20192;-84
2023/12/13 18:11:51;;;;;;;4.30;3.27;;;;;;;;;;5062689;28;20180;-83
2023/12/13 18:14:55;;;;;;;4.63;3.80;;;;;;;;;;5061552;28;20184;-84
2023/12/13 18:18:01;;;;;;;7.03;3.47;;;;;;;;;;5062150;28;20176;-83
2023/12/13 18:21:06;;;;;;;3.57;2.93;;;;;;;;;;5062450;28;20182;-83
2023/12/13 18:24:10;;;;;;;4.43;2.77;;;;;;;;;;5061490;28;20172;-84
2023/12/13 18:27:15;;;;;;;4.57;3.20;;;;;;;;;;5060864;28;20220;-83